Time;durP1;ratioP1;P1;durP2;ratioP2;P2;SDS_P1;SDS_P2;PMS_P1;PMS_P2;Temp;Humidity;BMP_temperature;BMP_pressure;BME280_temperature;BME280_humidity;BME280_pressure;Samples;Min_cycle;Max_cycle;Signal;HPM_P1;HPM_P2
2022/01/01 00:02:21;;;;;;;84.40;40.03;;;;;;;1.83;82.16;93803.81;5002689;28;20034;-43
2022/01/01 00:04:47;;;;;;;115.00;52.47;;;;;;;2.03;82.35;93819.31;5005378;28;20415;-44
2022/01/01 00:07:14;;;;;;;126.50;54.42;;;;;;;2.11;82.83;93818.38;4992619;28;20030;-42
2022/01/01 00:09:40;;;;;;;142.65;61.25;;;;;;;2.21;82.45;93819.66;4994335;28;20136;-41
2022/01/01 00:12:07;;;;;;;124.30;50.13;;;;;;;2.24;82.36;93812.50;4999697;28;20110;-41
2022/01/01 00:14:33;;;;;;;134.85;53.20;;;;;;;2.08;83.95;93821.31;4999155;28;20035;-42
2022/01/01 00:16:58;;;;;;;124.65;46.72;;;;;;;2.01;83.67;93817.06;4997821;28;20022;-42
2022/01/01 00:19:24;;;;;;;112.57;44.15;;;;;;;2.02;85.23;93818.53;4998310;28;20510;-44
2022/01/01 00:21:50;;;;;;;97.45;37.42;;;;;;;2.16;84.31;93812.22;4997561;28;20022;-45
2022/01/01 00:24:15;;;;;;;101.88;28.30;;;;;;;2.01;84.76;93816.31;4998332;28;20037;-45
2022/01/01 00:26:41;;;;;;;86.15;30.65;;;;;;;2.09;84.28;93817.34;4997223;28;20708;-44
2022/01/01 00:29:07;;;;;;;91.22;29.35;;;;;;;1.98;83.55;93809.09;4999294;28;20067;-43
2022/01/01 00:31:33;;;;;;;68.60;28.80;;;;;;;2.09;83.44;93812.66;5012304;28;20034;-46
2022/01/01 00:34:00;;;;;;;79.80;28.38;;;;;;;1.84;83.59;93799.84;5000298;28;20041;-45
2022/01/01 00:36:26;;;;;;;126.22;31.27;;;;;;;2.11;83.27;93798.56;4998158;28;20037;-44
2022/01/01 00:38:52;;;;;;;88.32;27.33;;;;;;;2.24;82.39;93796.16;4998231;28;20107;-42
2022/01/01 00:41:17;;;;;;;84.57;28.13;;;;;;;1.86;84.01;93791.22;5004416;28;20105;-42
2022/01/01 00:43:44;;;;;;;136.57;48.30;;;;;;;1.92;84.07;93792.00;4999846;28;20024;-42
2022/01/01 00:46:10;;;;;;;122.88;30.08;;;;;;;1.93;84.33;93799.66;4998304;28;20482;-44
2022/01/01 00:48:35;;;;;;;148.43;31.40;;;;;;;1.98;84.41;93800.94;4996247;28;20036;-45
2022/01/01 00:51:01;;;;;;;78.80;25.60;;;;;;;1.79;83.53;93789.69;4998673;28;20030;-47
2022/01/01 00:53:26;;;;;;;64.15;26.05;;;;;;;1.69;84.08;93782.19;5000766;28;20155;-45
2022/01/01 00:55:52;;;;;;;49.60;19.02;;;;;;;1.70;83.02;93775.50;4998157;28;20030;-44
2022/01/01 00:58:18;;;;;;;26.23;16.17;;;;;;;1.67;83.32;93782.63;5008026;28;20028;-45
2022/01/01 01:00:44;;;;;;;33.20;19.40;;;;;;;1.86;82.68;93780.31;5000345;28;20087;-44
2022/01/01 01:03:10;;;;;;;43.85;26.27;;;;;;;1.89;82.38;93782.81;4987096;28;20076;-44
2022/01/01 01:05:38;;;;;;;60.63;30.55;;;;;;;1.89;83.24;93787.50;4988447;28;20018;-42
2022/01/01 01:08:07;;;;;;;82.53;38.00;;;;;;;1.65;84.73;93787.06;4989405;28;20022;-40
2022/01/01 01:10:33;;;;;;;65.50;20.05;;;;;;;1.45;86.95;93777.75;4994573;28;20133;-44
2022/01/01 01:12:59;;;;;;;55.20;18.45;;;;;;;1.57;88.26;93777.84;5009593;28;20045;-41
2022/01/01 01:15:25;;;;;;;74.70;22.98;;;;;;;1.58;88.44;93763.03;5009258;28;20515;-42
2022/01/01 01:17:52;;;;;;;71.88;18.73;;;;;;;1.77;88.85;93769.59;4998036;28;20029;-47
2022/01/01 01:20:19;;;;;;;63.65;18.05;;;;;;;1.92;88.80;93743.72;5006773;28;20021;-42
2022/01/01 01:22:44;;;;;;;80.97;19.27;;;;;;;1.85;89.12;93744.19;4991540;28;20026;-43
2022/01/01 01:25:11;;;;;;;64.20;18.67;;;;;;;1.98;88.50;93749.94;5001991;28;20018;-41
2022/01/01 01:27:37;;;;;;;42.88;14.98;;;;;;;2.04;87.96;93747.25;4999799;28;20045;-40
2022/01/01 01:30:09;;;;;;;61.50;12.18;;;;;;;1.94;87.31;93748.69;5035165;28;20462;-40
2022/01/01 01:32:36;;;;;;;62.58;10.75;;;;;;;2.06;86.43;93759.16;5039727;28;20025;-40
2022/01/01 01:35:02;;;;;;;34.15;10.05;;;;;;;2.14;86.47;93751.28;5039340;28;20055;-40
2022/01/01 01:37:28;;;;;;;117.43;13.45;;;;;;;2.21;86.02;93748.09;5007740;28;20021;-40
2022/01/01 01:39:56;;;;;;;88.93;14.10;;;;;;;2.27;86.59;93735.25;4997980;28;20392;-40
2022/01/01 01:42:22;;;;;;;88.50;17.48;;;;;;;2.36;86.01;93747.94;4999076;28;20483;-40
2022/01/01 01:44:51;;;;;;;49.30;11.60;;;;;;;2.43;85.47;93748.19;4999570;28;20044;-40
2022/01/01 01:47:26;;;;;;;43.10;8.65;;;;;;;2.20;85.89;93752.81;4997338;28;20517;-39
2022/01/01 01:49:52;;;;;;;27.80;7.72;;;;;;;2.07;86.23;93746.28;4999645;28;20026;-40
2022/01/01 01:52:19;;;;;;;39.35;9.13;;;;;;;2.04;86.66;93739.09;4998094;28;20056;-42
2022/01/01 01:54:45;;;;;;;85.22;13.88;;;;;;;1.94;86.67;93744.00;4997180;28;20018;-40
2022/01/01 01:57:10;;;;;;;81.57;16.38;;;;;;;2.12;86.25;93751.03;4999063;28;20423;-40
2022/01/01 01:59:36;;;;;;;65.63;17.27;;;;;;;1.88;86.82;93751.38;4995898;28;20026;-40
2022/01/01 02:02:02;;;;;;;55.55;17.83;;;;;;;2.09;86.98;93752.00;4997131;28;20030;-40
2022/01/01 02:04:36;;;;;;;42.60;16.50;;;;;;;2.05;86.57;93751.47;4997750;28;20026;-41
2022/01/01 02:07:02;;;;;;;44.92;14.88;;;;;;;2.15;86.31;93758.22;4998249;28;20014;-42
2022/01/01 02:09:27;;;;;;;54.55;14.77;;;;;;;2.06;86.44;93755.69;5006448;28;20032;-42
2022/01/01 02:11:53;;;;;;;109.72;14.98;;;;;;;2.06;86.91;93748.25;5001729;28;20018;-42
2022/01/01 02:14:34;;;;;;;100.72;13.68;;;;;;;2.04;86.73;93755.41;4996029;28;20455;-42
2022/01/01 02:19:26;;;;;;;80.35;18.45;;;;;;;2.07;87.78;93749.00;5005433;28;20025;-43
2022/01/01 02:21:54;;;;;;;99.70;20.33;;;;;;;2.05;87.32;93752.22;5007847;28;20063;-42
2022/01/01 02:24:20;;;;;;;81.13;21.38;;;;;;;1.86;87.15;93740.25;5007867;28;20101;-42
2022/01/01 02:26:45;;;;;;;38.00;11.77;;;;;;;1.68;88.22;93734.41;5008103;28;20038;-43
2022/01/01 02:29:11;;;;;;;23.85;7.78;;;;;;;1.52;87.99;93733.78;5008271;28;20025;-44
2022/01/01 02:31:37;;;;;;;38.33;12.00;;;;;;;1.65;87.01;93725.22;5008612;28;20026;-43
2022/01/01 02:34:07;;;;;;;47.42;16.85;;;;;;;1.69;86.63;93725.75;5008533;28;20026;-43
2022/01/01 02:36:37;;;;;;;41.15;17.83;;;;;;;1.66;86.18;93717.81;5008124;28;20026;-44
2022/01/01 02:39:11;;;;;;;44.17;18.00;;;;;;;1.85;86.40;93721.66;5008052;28;20025;-45
2022/01/01 02:41:36;;;;;;;50.55;16.33;;;;;;;1.81;87.29;93721.13;5008326;28;20026;-46
2022/01/01 02:44:02;;;;;;;208.82;68.97;;;;;;;1.86;87.58;93731.31;4996487;28;20522;-45
2022/01/01 02:46:28;;;;;;;83.82;31.73;;;;;;;1.79;86.57;93729.78;4988380;28;20067;-46
2022/01/01 02:48:53;;;;;;;129.95;45.97;;;;;;;1.85;87.04;93727.09;4988690;28;20022;-46
2022/01/01 02:51:19;;;;;;;113.18;46.95;;;;;;;1.87;87.25;93724.63;4988234;28;20498;-45
2022/01/01 02:53:44;;;;;;;86.68;35.25;;;;;;;1.61;86.98;93724.72;5002625;28;20026;-45
2022/01/01 02:56:10;;;;;;;54.03;25.52;;;;;;;1.49;88.17;93734.03;5016193;28;20456;-44
2022/01/01 02:58:35;;;;;;;37.25;16.45;;;;;;;1.17;86.69;93702.63;5006458;28;20040;-45
2022/01/01 03:01:01;;;;;;;44.67;17.70;;;;;;;1.22;86.72;93715.50;5006027;28;20022;-45
2022/01/01 03:03:26;;;;;;;35.35;15.63;;;;;;;1.15;88.15;93722.13;5006204;28;20060;-44
2022/01/01 03:05:52;;;;;;;34.70;16.42;;;;;;;1.13;87.99;93727.28;5006242;28;20408;-41
2022/01/01 03:08:17;;;;;;;51.85;16.73;;;;;;;1.08;88.68;93736.16;5006077;28;20104;-41
2022/01/01 03:10:43;;;;;;;35.78;18.63;;;;;;;0.88;88.94;93722.63;5005827;28;20479;-41
2022/01/01 03:13:08;;;;;;;49.25;16.45;;;;;;;1.03;88.93;93736.09;5006162;28;20022;-41
2022/01/01 03:15:34;;;;;;;35.80;15.05;;;;;;;1.18;88.47;93717.69;5007704;28;20030;-41
2022/01/01 03:18:01;;;;;;;27.15;12.15;;;;;;;1.06;88.04;93718.84;4999011;28;20295;-43
2022/01/01 03:20:27;;;;;;;21.25;10.45;;;;;;;1.00;87.93;93724.22;4997722;28;20025;-43
2022/01/01 03:22:52;;;;;;;17.70;10.48;;;;;;;0.97;88.38;93719.00;4995896;28;20112;-41
2022/01/01 03:25:18;;;;;;;17.77;9.15;;;;;;;1.15;88.54;93710.50;5005135;28;20466;-43
2022/01/01 03:27:43;;;;;;;20.42;10.75;;;;;;;1.31;88.57;93707.91;5007293;28;20042;-43
2022/01/01 03:30:09;;;;;;;16.58;9.55;;;;;;;1.30;88.52;93706.41;5007485;28;20048;-43
2022/01/01 03:32:34;;;;;;;22.48;11.02;;;;;;;1.32;91.43;93703.97;5007688;28;20030;-44
2022/01/01 03:35:00;;;;;;;34.10;12.35;;;;;;;1.42;94.17;93702.56;5007354;28;20036;-46
2022/01/01 03:37:25;;;;;;;46.42;15.68;;;;;;;1.60;96.76;93698.00;5007312;28;20034;-44
2022/01/01 03:39:51;;;;;;;53.28;18.63;;;;;;;1.63;97.10;93680.69;5000680;28;20042;-43
2022/01/01 03:42:16;;;;;;;126.88;17.77;;;;;;;1.90;98.01;93707.34;4987630;28;20095;-45
2022/01/01 03:44:41;;;;;;;17.58;9.65;;;;;;;1.91;96.32;93697.91;4988050;28;20125;-44
2022/01/01 03:47:10;;;;;;;60.75;20.50;;;;;;;2.01;94.11;93699.97;4987639;28;20103;-45
2022/01/01 03:49:39;;;;;;;36.85;17.00;;;;;;;2.10;92.16;93707.19;4987920;28;20027;-43
2022/01/01 03:52:05;;;;;;;74.80;23.95;;;;;;;2.19;90.97;93701.53;4987561;28;20067;-44
2022/01/01 03:54:31;;;;;;;51.05;21.75;;;;;;;2.31;90.23;93692.19;4987644;28;20035;-44
2022/01/01 03:56:56;;;;;;;134.45;29.15;;;;;;;2.29;89.38;93697.38;4987797;28;20026;-43
2022/01/01 03:59:23;;;;;;;67.68;26.77;;;;;;;2.39;89.21;93687.75;4987686;28;20033;-44
2022/01/01 04:01:48;;;;;;;64.70;28.42;;;;;;;2.43;88.44;93690.97;4987885;28;20446;-43
2022/01/01 04:04:14;;;;;;;60.97;25.88;;;;;;;2.37;87.09;93689.47;4987726;28;20022;-42
2022/01/01 04:06:39;;;;;;;60.40;22.55;;;;;;;2.42;86.06;93691.47;4987555;28;20106;-43
2022/01/01 04:09:05;;;;;;;68.65;30.00;;;;;;;2.42;85.64;93689.50;4987656;28;20035;-45
2022/01/01 04:11:30;;;;;;;82.97;35.92;;;;;;;2.42;85.90;93678.59;4987045;28;20566;-43
2022/01/01 04:13:56;;;;;;;88.35;35.53;;;;;;;2.53;85.29;93683.34;4996038;28;20022;-44
2022/01/01 04:16:22;;;;;;;80.15;36.35;;;;;;;2.45;85.41;93682.34;4994906;28;20603;-48
2022/01/01 04:18:48;;;;;;;75.13;34.58;;;;;;;2.45;85.98;93680.31;5002515;28;20030;-43
2022/01/01 04:21:15;;;;;;;111.15;41.63;;;;;;;2.37;85.61;93687.50;4988974;28;20035;-45
2022/01/01 04:23:43;;;;;;;67.57;35.20;;;;;;;2.48;84.84;93690.25;4987533;28;20038;-43
2022/01/01 04:26:10;;;;;;;64.53;34.05;;;;;;;2.43;84.94;93685.53;4991807;28;20042;-44
2022/01/01 04:28:37;;;;;;;72.47;36.33;;;;;;;2.44;84.54;93678.09;4989349;28;20034;-43
2022/01/01 04:31:03;;;;;;;54.67;27.10;;;;;;;2.40;84.56;93675.63;5006698;28;20038;-43
2022/01/01 04:33:28;;;;;;;57.65;29.13;;;;;;;2.30;84.50;93680.53;5013279;28;20072;-41
2022/01/01 04:35:54;;;;;;;71.32;33.67;;;;;;;2.13;85.71;93682.44;5029445;28;20032;-42
2022/01/01 04:40:54;;;;;;;73.70;36.70;;;;;;;2.15;85.99;93685.44;4989119;28;20026;-42
2022/01/01 04:43:20;;;;;;;60.67;32.15;;;;;;;2.08;86.55;93666.09;4989097;28;20037;-42
2022/01/01 04:45:45;;;;;;;58.03;31.65;;;;;;;2.11;86.87;93682.19;4989244;28;20027;-42
2022/01/01 04:48:11;;;;;;;65.72;32.20;;;;;;;2.06;86.74;93688.34;4990321;28;20625;-44
2022/01/01 04:50:36;;;;;;;58.72;31.75;;;;;;;2.25;85.45;93672.34;4990441;28;20044;-43
2022/01/01 04:53:02;;;;;;;67.20;34.47;;;;;;;1.84;86.19;93668.44;4990131;28;20030;-43
2022/01/01 04:55:27;;;;;;;52.63;30.00;;;;;;;1.82;87.31;93668.91;4990093;28;20090;-42
2022/01/01 04:57:53;;;;;;;48.08;26.42;;;;;;;1.71;88.20;93679.00;4990442;28;20065;-43
2022/01/01 05:00:18;;;;;;;52.92;25.95;;;;;;;1.75;88.80;93669.38;4990453;28;20027;-42
2022/01/01 05:02:44;;;;;;;37.60;22.50;;;;;;;1.61;88.82;93677.69;4990298;28;20388;-42
2022/01/01 05:05:10;;;;;;;32.63;15.82;;;;;;;1.67;88.14;93673.06;4990048;28;20034;-42
2022/01/01 05:07:35;;;;;;;25.40;13.57;;;;;;;1.73;87.96;93682.75;4989976;28;20105;-41
2022/01/01 05:10:01;;;;;;;30.90;14.65;;;;;;;1.86;88.17;93680.34;4990400;28;20038;-41
2022/01/01 05:12:26;;;;;;;29.60;16.10;;;;;;;1.93;87.04;93684.56;4990075;28;20113;-42
2022/01/01 05:14:52;;;;;;;27.13;15.30;;;;;;;1.98;86.39;93690.06;4990026;28;20038;-41
2022/01/01 05:17:18;;;;;;;31.45;19.25;;;;;;;2.01;85.55;93688.34;4998433;28;20036;-42
2022/01/01 05:19:44;;;;;;;37.80;19.75;;;;;;;2.17;85.04;93695.81;5009645;28;20414;-42
2022/01/01 05:22:09;;;;;;;31.73;18.02;;;;;;;1.96;85.26;93695.25;5009434;28;20030;-42
2022/01/01 05:24:35;;;;;;;33.47;18.52;;;;;;;1.95;85.88;93679.41;5008883;28;20022;-42
2022/01/01 05:27:00;;;;;;;31.88;18.15;;;;;;;2.05;86.06;93694.28;5009177;28;20138;-42
2022/01/01 05:29:26;;;;;;;32.00;17.35;;;;;;;2.24;86.35;93687.94;5008993;28;20513;-43
2022/01/01 05:31:52;;;;;;;34.47;18.33;;;;;;;2.12;87.13;93694.56;5008492;28;20126;-43
2022/01/01 05:34:17;;;;;;;32.67;17.45;;;;;;;2.24;87.11;93698.09;5009100;28;20026;-43
2022/01/01 05:36:43;;;;;;;27.73;16.38;;;;;;;2.33;87.01;93710.75;5007774;28;20462;-42
2022/01/01 05:39:08;;;;;;;28.35;15.13;;;;;;;2.06;86.83;93706.66;5009446;28;20033;-42
2022/01/01 05:41:34;;;;;;;324.50;142.40;;;;;;;1.86;86.89;93698.66;5009283;28;20025;-40
2022/01/01 05:44:00;;;;;;;56.70;26.25;;;;;;;1.89;87.64;93686.78;5008990;28;20406;-40
2022/01/01 05:46:25;;;;;;;82.15;37.17;;;;;;;1.84;88.93;93684.78;5009156;28;20029;-40
2022/01/01 05:48:51;;;;;;;71.13;31.10;;;;;;;2.04;89.32;93690.06;5003725;28;20101;-40
2022/01/01 05:51:17;;;;;;;54.90;27.15;;;;;;;2.20;88.50;93670.34;4989586;28;20030;-40
2022/01/01 05:53:42;;;;;;;70.40;34.30;;;;;;;2.21;88.09;93678.00;5010288;28;20041;-40
2022/01/01 05:56:08;;;;;;;87.18;43.78;;;;;;;2.25;87.83;93683.25;5023103;28;20030;-40
2022/01/01 05:58:33;;;;;;;74.35;36.67;;;;;;;2.37;87.31;93700.38;5020339;28;20036;-40
2022/01/01 06:00:59;;;;;;;109.65;42.53;;;;;;;2.34;87.01;93693.91;5027813;28;20057;-40
2022/01/01 06:03:24;;;;;;;112.53;51.65;;;;;;;2.44;86.69;93681.59;4999282;28;20608;-40
2022/01/01 06:05:52;;;;;;;124.60;58.58;;;;;;;2.43;87.33;93666.47;4989377;28;20030;-40
2022/01/01 06:08:18;;;;;;;98.55;47.50;;;;;;;2.32;87.24;93649.34;4989454;28;20052;-40
2022/01/01 06:10:43;;;;;;;96.13;48.55;;;;;;;2.44;87.96;93659.78;4989321;28;20049;-40
2022/01/01 06:13:09;;;;;;;85.35;41.53;;;;;;;2.54;87.05;93685.56;4989009;28;20392;-40
2022/01/01 06:15:35;;;;;;;130.52;67.50;;;;;;;2.65;86.13;93699.22;4988937;28;20110;-40
2022/01/01 06:18:00;;;;;;;85.40;40.00;;;;;;;2.62;85.51;93708.38;5003669;28;20030;-41
2022/01/01 06:20:26;;;;;;;191.35;55.45;;;;;;;2.68;85.58;93711.13;5008698;28;20444;-40
2022/01/01 06:22:51;;;;;;;144.35;46.58;;;;;;;2.68;85.22;93687.34;4993387;28;20030;-40
2022/01/01 06:25:17;;;;;;;138.30;40.25;;;;;;;2.69;85.14;93694.28;4992443;28;20038;-41
2022/01/01 06:27:42;;;;;;;117.15;41.58;;;;;;;2.49;85.45;93691.00;4988583;28;20062;-40
2022/01/01 06:30:08;;;;;;;126.15;52.70;;;;;;;2.53;85.49;93711.34;4989321;28;20030;-41
2022/01/01 06:32:34;;;;;;;104.13;47.03;;;;;;;2.45;85.42;93728.66;4988567;28;20031;-40
2022/01/01 06:35:00;;;;;;;89.28;45.03;;;;;;;2.44;85.51;93722.47;4989071;28;20031;-41
2022/01/01 06:37:25;;;;;;;96.22;45.67;;;;;;;2.53;85.72;93713.31;4988494;28;20027;-40
2022/01/01 06:39:51;;;;;;;97.15;36.17;;;;;;;2.54;86.06;93715.53;4988708;28;20033;-40
2022/01/01 06:42:17;;;;;;;88.10;39.15;;;;;;;2.38;86.85;93710.03;4988757;28;20518;-40
2022/01/01 06:44:42;;;;;;;96.88;29.35;;;;;;;2.47;87.09;93705.09;5001045;28;20554;-41
2022/01/01 06:47:09;;;;;;;115.95;27.33;;;;;;;2.40;88.12;93694.69;5007440;28;20411;-40
2022/01/01 06:49:34;;;;;;;139.10;52.08;;;;;;;2.37;88.69;93716.72;5007870;28;20419;-42
2022/01/01 06:52:00;;;;;;;104.43;43.95;;;;;;;2.11;88.72;93711.41;5008261;28;20030;-42
2022/01/01 06:54:25;;;;;;;253.38;67.68;;;;;;;2.28;87.68;93712.22;5007832;28;20088;-42
2022/01/01 06:56:51;;;;;;;178.05;68.53;;;;;;;1.92;87.29;93707.59;5008363;28;20030;-42
2022/01/01 06:59:16;;;;;;;192.55;83.43;;;;;;;1.89;88.42;93720.19;5008042;28;20044;-44
2022/01/01 07:01:42;;;;;;;178.38;62.58;;;;;;;1.54;89.49;93731.34;4996090;28;20038;-45
2022/01/01 07:04:07;;;;;;;155.55;56.30;;;;;;;1.71;90.23;93739.63;4998574;28;20030;-43
2022/01/01 07:06:34;;;;;;;63.47;26.55;;;;;;;1.82;90.25;93755.31;4996371;28;20448;-46
2022/01/01 07:09:00;;;;;;;112.00;54.25;;;;;;;1.75;89.97;93753.78;4998247;28;20155;-43
2022/01/01 07:11:26;;;;;;;62.75;29.35;;;;;;;1.85;89.81;93749.63;4996352;28;20018;-42
2022/01/01 07:13:53;;;;;;;80.20;37.40;;;;;;;2.19;88.50;93756.75;4998066;28;20078;-42
2022/01/01 07:16:20;;;;;;;67.75;39.08;;;;;;;2.22;87.03;93760.50;4997325;28;20041;-43
2022/01/01 07:18:46;;;;;;;92.93;49.15;;;;;;;2.34;87.49;93751.13;5005465;28;20056;-43
2022/01/01 07:21:11;;;;;;;51.75;31.17;;;;;;;2.44;87.45;93749.69;4997889;28;20058;-42
2022/01/01 07:23:37;;;;;;;70.47;40.60;;;;;;;2.66;88.15;93740.88;4996740;28;20023;-42
2022/01/01 07:26:02;;;;;;;73.85;45.03;;;;;;;2.75;87.79;93749.56;4997688;28;20050;-43
2022/01/01 07:28:28;;;;;;;106.32;62.63;;;;;;;3.06;87.19;93770.47;4998436;28;20057;-43
2022/01/01 07:30:53;;;;;;;99.28;51.30;;;;;;;3.34;85.42;93759.59;4997060;28;20419;-43
2022/01/01 07:33:19;;;;;;;103.43;56.55;;;;;;;3.57;83.51;93742.75;4996909;28;20022;-44
2022/01/01 07:35:44;;;;;;;151.95;82.63;;;;;;;3.63;81.98;93721.69;4997986;28;20018;-44
2022/01/01 07:38:10;;;;;;;137.77;74.97;;;;;;;3.86;82.11;93757.88;4995324;28;20019;-43
2022/01/01 07:40:36;;;;;;;119.80;69.55;;;;;;;4.14;81.01;93736.75;4996573;28;20065;-43
2022/01/01 07:43:08;;;;;;;140.60;78.15;;;;;;;4.39;80.13;93754.84;4998167;28;20023;-44
2022/01/01 07:45:34;;;;;;;158.45;94.03;;;;;;;4.58;79.77;93761.22;4997202;28;20026;-43
2022/01/01 07:48:00;;;;;;;162.98;69.18;;;;;;;4.83;79.17;93753.91;5000319;28;20448;-44
2022/01/01 07:50:25;;;;;;;153.73;84.10;;;;;;;4.98;78.85;93759.81;4994030;28;20030;-44
2022/01/01 07:52:51;;;;;;;143.40;83.57;;;;;;;5.12;77.81;93761.50;4997163;28;20050;-43
2022/01/01 07:55:16;;;;;;;142.57;83.80;;;;;;;5.31;77.66;93767.09;4997693;28;20079;-44
2022/01/01 07:57:42;;;;;;;123.25;73.40;;;;;;;5.80;76.97;93771.50;4995340;28;20026;-44
2022/01/01 08:00:08;;;;;;;83.95;52.33;;;;;;;6.51;76.06;93735.72;5001335;28;20026;-44
2022/01/01 08:02:43;;;;;;;70.05;47.95;;;;;;;7.28;72.90;93756.00;4996273;28;20053;-43
2022/01/01 08:05:10;;;;;;;52.35;36.95;;;;;;;8.16;71.83;93756.66;5000177;28;20041;-44
2022/01/01 08:07:36;;;;;;;50.47;34.42;;;;;;;9.60;67.12;93754.63;5001237;28;20343;-43
2022/01/01 08:10:02;;;;;;;41.47;29.85;;;;;;;11.22;62.06;93758.31;4997876;28;20101;-45
2022/01/01 08:12:27;;;;;;;22.23;16.92;;;;;;;12.56;58.05;93758.47;5001359;28;20059;-42
2022/01/01 08:14:56;;;;;;;29.38;21.33;;;;;;;13.36;54.10;93755.97;5003013;28;20068;-43
2022/01/01 08:17:22;;;;;;;;;;;;;;;14.05;51.79;93759.91;4996896;28;20558;-44
2022/01/01 08:19:48;;;;;;;110.25;70.47;;;;;;;14.77;50.85;93748.69;4991556;28;20066;-46
2022/01/01 08:22:14;;;;;;;79.18;51.97;;;;;;;15.73;48.85;93753.06;4997273;28;20029;-41
2022/01/01 08:24:41;;;;;;;69.40;49.65;;;;;;;16.62;45.88;93749.63;4996626;28;20026;-43
2022/01/01 08:27:06;;;;;;;72.25;50.08;;;;;;;17.66;43.90;93747.66;4994847;28;20046;-43
2022/01/01 08:29:32;;;;;;;51.05;38.20;;;;;;;18.10;42.01;93748.75;4994872;28;20041;-44
2022/01/01 08:31:57;;;;;;;57.78;41.78;;;;;;;18.39;41.84;93757.09;4970607;28;20128;-44
2022/01/01 08:34:23;;;;;;;19.80;16.98;;;;;;;17.25;43.79;93757.88;4995916;28;20494;-43
2022/01/01 08:36:49;;;;;;;13.40;10.85;;;;;;;15.96;46.63;93756.31;4997159;28;20034;-43
2022/01/01 08:39:16;;;;;;;24.88;16.30;;;;;;;15.40;49.49;93765.69;4994677;28;20045;-43
2022/01/01 08:41:45;;;;;;;9.88;8.88;;;;;;;15.80;48.93;93760.59;5006226;28;20026;-44
2022/01/01 08:44:11;;;;;;;12.27;9.48;;;;;;;15.54;50.21;93758.50;5005693;28;20029;-44
2022/01/01 08:46:37;;;;;;;15.50;11.63;;;;;;;16.08;48.31;93762.84;5006168;28;20028;-45
2022/01/01 08:49:03;;;;;;;9.82;7.30;;;;;;;15.41;49.72;93770.69;5005315;28;20419;-45
2022/01/01 08:51:29;;;;;;;17.90;10.73;;;;;;;16.07;48.41;93769.00;5005916;28;20550;-45
2022/01/01 08:53:56;;;;;;;49.58;26.63;;;;;;;16.56;47.14;93751.97;5005607;28;20783;-44
2022/01/01 08:56:22;;;;;;;40.00;24.73;;;;;;;16.32;48.28;93758.44;5006163;28;20433;-44
2022/01/01 08:58:47;;;;;;;20.98;14.05;;;;;;;17.71;44.51;93750.16;4997570;28;20063;-44
2022/01/01 09:01:13;;;;;;;41.55;21.92;;;;;;;17.61;43.66;93762.63;4986542;28;20068;-45
2022/01/01 09:03:39;;;;;;;13.50;8.57;;;;;;;18.60;42.30;93765.56;4986745;28;20116;-45
2022/01/01 09:06:05;;;;;;;7.85;6.47;;;;;;;19.36;39.28;93760.97;4986666;28;20067;-45
2022/01/01 09:08:33;;;;;;;6.70;5.78;;;;;;;20.04;39.03;93764.72;4986267;28;20520;-44
2022/01/01 09:10:58;;;;;;;11.18;8.25;;;;;;;19.76;38.66;93758.03;4988161;28;20033;-45
2022/01/01 09:13:24;;;;;;;9.52;6.63;;;;;;;19.49;39.40;93760.44;4996502;28;20095;-45
2022/01/01 09:15:49;;;;;;;8.10;5.80;;;;;;;18.61;40.63;93767.06;4994613;28;20762;-45
2022/01/01 09:18:15;;;;;;;8.85;6.55;;;;;;;16.48;45.54;93768.75;4997036;28;20087;-45
2022/01/01 09:20:41;;;;;;;9.38;6.82;;;;;;;15.55;48.52;93777.41;4989636;28;20105;-46
2022/01/01 09:23:06;;;;;;;11.10;7.80;;;;;;;15.70;48.70;93773.72;5000926;28;20032;-44
2022/01/01 09:25:33;;;;;;;7.30;6.00;;;;;;;15.58;48.92;93779.06;4996510;28;20108;-43
2022/01/01 09:27:58;;;;;;;7.97;6.75;;;;;;;15.89;49.11;93780.19;4995348;28;20014;-43
2022/01/01 09:30:24;;;;;;;15.93;13.95;;;;;;;16.27;47.86;93771.31;4995918;28;20393;-44
2022/01/01 09:32:50;;;;;;;8.88;7.75;;;;;;;17.55;46.45;93774.09;4995201;28;20022;-44
2022/01/01 09:35:17;;;;;;;6.65;4.78;;;;;;;18.78;42.67;93775.22;4995946;28;20038;-44
2022/01/01 09:37:43;;;;;;;6.05;4.97;;;;;;;19.30;40.94;93774.53;5006881;28;20045;-46
2022/01/01 09:40:09;;;;;;;5.78;4.85;;;;;;;19.15;40.79;93775.66;5003282;28;20038;-44
2022/01/01 09:42:36;;;;;;;12.07;8.43;;;;;;;19.66;40.20;93758.09;4990063;28;20031;-45
2022/01/01 09:45:05;;;;;;;5.65;4.97;;;;;;;19.57;38.88;93789.72;4996017;28;20022;-43
2022/01/01 09:47:30;;;;;;;10.00;5.05;;;;;;;18.71;41.02;93787.31;4996505;28;20048;-43
2022/01/01 09:49:56;;;;;;;9.13;7.78;;;;;;;18.17;42.51;93792.59;5003173;28;20068;-44
2022/01/01 09:52:22;;;;;;;6.85;5.40;;;;;;;17.71;43.70;93780.13;5006796;28;20110;-44
2022/01/01 09:54:47;;;;;;;14.45;11.27;;;;;;;18.34;44.24;93785.38;5006452;28;20037;-45
2022/01/01 09:57:13;;;;;;;16.85;14.75;;;;;;;19.59;41.66;93786.31;4995640;28;20534;-45
2022/01/01 09:59:40;;;;;;;8.70;6.65;;;;;;;20.15;39.35;93789.25;4987047;28;20057;-45
2022/01/01 10:02:06;;;;;;;7.45;5.47;;;;;;;21.58;36.26;93772.81;4991297;28;20494;-45
2022/01/01 10:04:47;;;;;;;6.15;4.97;;;;;;;22.18;34.63;93764.34;4998625;28;20034;-45
2022/01/01 10:07:13;;;;;;;8.75;6.53;;;;;;;22.69;33.97;93773.53;4993600;28;20028;-44
2022/01/01 10:09:39;;;;;;;6.20;5.18;;;;;;;22.43;34.45;93770.72;5006078;28;20037;-45
2022/01/01 10:12:06;;;;;;;8.02;6.18;;;;;;;21.20;35.78;93768.50;5018434;28;20022;-44
2022/01/01 10:14:43;;;;;;;13.95;7.13;;;;;;;20.31;37.67;93779.09;5014014;28;20559;-43
2022/01/01 10:17:20;;;;;;;8.10;5.85;;;;;;;20.04;38.18;93781.53;5008259;28;20014;-45
2022/01/01 10:19:49;;;;;;;7.07;5.07;;;;;;;19.97;38.13;93776.88;4993663;28;20026;-44
2022/01/01 10:22:22;;;;;;;9.10;6.47;;;;;;;18.62;41.51;93776.94;4992604;28;20034;-44
2022/01/01 10:27:47;;;;;;;11.40;8.48;;;;;;;17.33;43.97;93784.31;4993865;28;20081;-44
2022/01/01 10:30:21;;;;;;;22.23;15.65;;;;;;;17.62;44.05;93800.41;4996972;28;20502;-43
2022/01/01 10:33:20;;;;;;;94.28;61.88;;;;;;;17.01;44.96;93797.91;4996864;28;20420;-43
2022/01/01 10:35:50;;;;;;;25.98;17.08;;;;;;;16.09;48.45;93786.59;5031402;28;20568;-43
2022/01/01 10:38:25;;;;;;;10.00;7.97;;;;;;;15.32;50.63;93782.47;4998825;28;20128;-43
2022/01/01 10:41:10;;;;;;;9.40;7.60;;;;;;;15.08;49.70;93766.56;4995147;28;20034;-44
2022/01/01 10:43:36;;;;;;;11.43;8.45;;;;;;;14.88;50.97;93748.94;4994682;28;20030;-43
2022/01/01 10:46:03;;;;;;;24.75;20.63;;;;;;;14.59;53.25;93741.63;4995808;28;20120;-45
2022/01/01 10:51:04;;;;;;;12.88;7.28;;;;;;;14.72;53.45;93730.94;5006676;28;20065;-42
2022/01/01 10:53:30;;;;;;;16.48;9.63;;;;;;;15.23;52.74;93718.38;4997320;28;20112;-43
2022/01/01 10:55:58;;;;;;;19.98;12.23;;;;;;;15.90;51.35;93741.91;5004506;28;20026;-45
2022/01/01 10:58:29;;;;;;;15.25;12.27;;;;;;;16.56;49.49;93729.66;5007815;28;20025;-44
2022/01/01 11:01:04;;;;;;;19.13;10.48;;;;;;;16.92;48.46;93724.03;5000715;28;20159;-46
2022/01/01 11:03:41;;;;;;;13.10;11.13;;;;;;;17.60;46.89;93725.63;5006504;28;20029;-41
2022/01/01 11:06:10;;;;;;;13.60;9.32;;;;;;;17.64;45.63;93711.19;5013821;28;20030;-40
2022/01/01 11:08:37;;;;;;;16.95;12.73;;;;;;;17.43;46.37;93725.72;5004055;28;20053;-43
2022/01/01 11:11:04;;;;;;;12.60;9.90;;;;;;;17.53;46.20;93720.16;5003974;28;20096;-42
2022/01/01 11:13:33;;;;;;;11.75;9.18;;;;;;;17.01;46.70;93720.53;4991530;28;20034;-41
2022/01/01 11:16:00;;;;;;;15.82;9.70;;;;;;;16.12;48.28;93718.59;4984778;28;20389;-42
2022/01/01 11:18:26;;;;;;;15.40;11.40;;;;;;;15.50;50.61;93725.53;4999749;28;20060;-41
2022/01/01 11:20:52;;;;;;;18.40;12.77;;;;;;;15.60;51.06;93720.75;5004090;28;20061;-42
2022/01/01 11:23:19;;;;;;;19.77;14.48;;;;;;;15.48;51.07;93724.63;5004012;28;20560;-42
2022/01/01 11:25:45;;;;;;;18.48;13.30;;;;;;;15.08;51.21;93720.03;5003993;28;20066;-44
2022/01/01 11:28:16;;;;;;;24.40;16.48;;;;;;;14.73;52.97;93712.94;5004916;28;20032;-43
2022/01/01 11:30:49;;;;;;;14.52;10.13;;;;;;;14.45;53.51;93716.16;5004404;28;20044;-43
2022/01/01 11:33:16;;;;;;;21.58;16.55;;;;;;;14.08;54.77;93709.53;5005639;28;20030;-43